Time;durP1;ratioP1;P1;durP2;ratioP2;P2;SDS_P1;SDS_P2;PMS_P1;PMS_P2;Temp;Humidity;BMP_temperature;BMP_pressure;BME280_temperature;BME280_humidity;BME280_pressure;Samples;Min_cycle;Max_cycle;Signal;HPM_P1;HPM_P2
2022/01/08 00:01:25;;;;;;;8.83;1.40;;;1.50;85.70;;;;;;5025895;28;20086;-72
2022/01/08 00:03:51;;;;;;;10.13;1.97;;;1.40;85.70;;;;;;5041786;28;20048;-73
2022/01/08 00:06:17;;;;;;;5.70;1.30;;;1.30;85.80;;;;;;5051539;28;20115;-73
2022/01/08 00:08:44;;;;;;;5.75;1.02;;;1.20;85.70;;;;;;5037861;28;20568;-73
2022/01/08 00:11:13;;;;;;;8.77;1.55;;;1.20;85.70;;;;;;5035644;28;20047;-73
2022/01/08 00:13:40;;;;;;;9.85;2.10;;;1.10;85.80;;;;;;5058782;28;20048;-73
2022/01/08 00:16:06;;;;;;;8.93;1.70;;;1.10;85.70;;;;;;5048174;28;20044;-73
2022/01/08 00:18:32;;;;;;;9.63;1.73;;;1.00;85.40;;;;;;5068105;28;20122;-73
2022/01/08 00:20:58;;;;;;;5.57;1.00;;;1.00;85.50;;;;;;5055901;28;20119;-72
2022/01/08 00:23:24;;;;;;;4.73;1.17;;;1.00;85.60;;;;;;5034111;28;20131;-73
2022/01/08 00:25:50;;;;;;;8.40;1.10;;;1.00;85.60;;;;;;5070222;28;20032;-73
2022/01/08 00:28:15;;;;;;;6.27;0.70;;;1.00;85.60;;;;;;5019602;28;20040;-73
2022/01/08 00:30:41;;;;;;;5.93;0.80;;;1.00;85.50;;;;;;5056080;28;20040;-73
2022/01/08 00:33:07;;;;;;;12.90;1.77;;;1.00;85.70;;;;;;5038481;28;20048;-73
2022/01/08 00:35:33;;;;;;;13.77;1.50;;;0.90;85.60;;;;;;5055473;28;20070;-73
2022/01/08 00:38:00;;;;;;;5.77;1.00;;;0.90;85.70;;;;;;5058043;28;20044;-73
2022/01/08 00:40:26;;;;;;;3.50;0.85;;;0.90;85.70;;;;;;5037125;28;20040;-73
2022/01/08 00:42:51;;;;;;;6.80;1.33;;;1.00;85.70;;;;;;5033802;28;20102;-73
2022/01/08 00:45:17;;;;;;;7.17;1.43;;;1.00;85.60;;;;;;5057298;28;20330;-73
2022/01/08 00:47:43;;;;;;;5.83;1.10;;;1.00;85.50;;;;;;5054884;28;20060;-73
2022/01/08 00:50:12;;;;;;;5.90;1.13;;;1.10;85.30;;;;;;5046832;28;20115;-73
2022/01/08 00:52:38;;;;;;;4.00;1.10;;;1.10;85.20;;;;;;5069808;28;20103;-73
2022/01/08 00:55:04;;;;;;;7.53;1.20;;;1.10;85.30;;;;;;5069173;28;20461;-73
2022/01/08 00:57:30;;;;;;;5.63;1.38;;;1.20;85.30;;;;;;5050499;28;20123;-74
2022/01/08 00:59:56;;;;;;;3.07;0.60;;;1.40;85.20;;;;;;5035369;28;20131;-73
2022/01/08 01:02:22;;;;;;;9.05;0.85;;;1.50;85.00;;;;;;5039994;28;20384;-74
2022/01/08 01:04:48;;;;;;;10.33;1.07;;;1.50;84.40;;;;;;5041205;28;20047;-74
2022/01/08 01:07:13;;;;;;;3.27;0.40;;;1.50;84.60;;;;;;5050239;28;20480;-73
2022/01/08 01:09:39;;;;;;;2.23;0.60;;;1.40;84.60;;;;;;5059369;28;20028;-73
2022/01/08 01:12:05;;;;;;;2.13;0.20;;;1.40;84.60;;;;;;5020975;28;20452;-73
2022/01/08 01:14:31;;;;;;;4.63;0.40;;;1.40;84.70;;;;;;5028731;28;20047;-73
2022/01/08 01:16:57;;;;;;;1.17;0.10;;;1.40;85.00;;;;;;5026035;28;20504;-72
2022/01/08 01:19:23;;;;;;;5.87;0.37;;;1.40;85.00;;;;;;5022378;28;20032;-72
2022/01/08 01:21:49;;;;;;;2.87;0.30;;;1.40;85.10;;;;;;5051797;28;20617;-72
2022/01/08 01:24:20;;;;;;;2.22;0.30;;;1.30;85.30;;;;;;5034442;28;20054;-72
2022/01/08 01:48:23;;;;;;;7.32;0.88;;;0.70;86.00;;;;;;5061694;28;20059;-72
2022/01/08 01:50:49;;;;;;;8.63;1.03;;;0.70;86.40;;;;;;5043627;28;20044;-72
2022/01/08 01:53:15;;;;;;;9.07;0.90;;;0.80;86.60;;;;;;5043866;28;20048;-72
2022/01/08 01:55:48;;;;;;;5.40;0.50;;;0.90;86.70;;;;;;5040888;28;20044;-73
2022/01/08 01:58:15;;;;;;;5.25;0.68;;;1.00;86.60;;;;;;5039088;28;20181;-73
2022/01/08 02:00:47;;;;;;;5.88;0.57;;;1.00;86.70;;;;;;5060625;28;20096;-73
2022/01/08 02:03:13;;;;;;;6.13;0.80;;;1.10;86.50;;;;;;5034909;28;20048;-73
2022/01/08 02:05:39;;;;;;;6.37;0.70;;;1.10;86.50;;;;;;5045425;28;20055;-73
2022/01/08 02:08:05;;;;;;;5.07;0.60;;;1.10;86.40;;;;;;5038590;28;20563;-73
2022/01/08 02:10:30;;;;;;;5.97;0.50;;;1.20;86.50;;;;;;5044516;28;20295;-73
2022/01/08 02:12:56;;;;;;;5.27;0.73;;;1.30;86.50;;;;;;5027896;28;20489;-73
2022/01/08 02:15:22;;;;;;;6.00;0.40;;;1.40;86.50;;;;;;5033394;28;20044;-73
2022/01/08 02:17:48;;;;;;;5.00;0.50;;;1.40;86.40;;;;;;5058538;28;20044;-73
2022/01/08 02:20:14;;;;;;;7.67;0.60;;;1.50;86.40;;;;;;5043966;28;20032;-73
2022/01/08 02:22:39;;;;;;;8.57;0.70;;;1.60;86.30;;;;;;5031505;28;20630;-73
2022/01/08 02:25:05;;;;;;;9.13;0.70;;;1.60;86.20;;;;;;5050122;28;20047;-73
2022/01/08 02:27:31;;;;;;;6.97;0.65;;;1.70;86.10;;;;;;5044407;28;20036;-73
2022/01/08 02:29:57;;;;;;;4.17;0.60;;;1.70;86.20;;;;;;5033585;28;20044;-73
2022/01/08 02:32:27;;;;;;;4.80;0.70;;;1.60;86.30;;;;;;5056995;28;20040;-73
2022/01/08 02:34:53;;;;;;;4.97;0.45;;;1.60;86.30;;;;;;5043782;28;20040;-73
2022/01/08 02:37:25;;;;;;;3.70;0.43;;;1.60;86.30;;;;;;5049869;28;20068;-73
2022/01/08 02:39:51;;;;;;;5.80;0.43;;;1.60;86.40;;;;;;5035003;28;20060;-73
2022/01/08 02:42:19;;;;;;;5.60;0.57;;;1.60;86.40;;;;;;5048466;28;20048;-73
2022/01/08 02:44:46;;;;;;;3.78;0.40;;;1.50;86.50;;;;;;5051836;28;20392;-73
2022/01/08 02:47:17;;;;;;;3.08;0.40;;;1.40;86.50;;;;;;5031933;28;20047;-73
2022/01/08 02:49:43;;;;;;;3.30;0.50;;;1.40;86.50;;;;;;5040846;28;20102;-73
2022/01/08 02:52:10;;;;;;;6.00;0.73;;;1.30;86.50;;;;;;5038682;28;20092;-73
2022/01/08 02:54:36;;;;;;;6.80;0.40;;;1.20;86.60;;;;;;5055413;28;20289;-73
2022/01/08 02:57:02;;;;;;;3.95;0.60;;;1.10;86.70;;;;;;5048394;28;20040;-73
2022/01/08 02:59:29;;;;;;;5.32;0.60;;;1.00;86.70;;;;;;5035095;28;20044;-73
2022/01/08 03:01:54;;;;;;;5.43;0.70;;;0.90;86.70;;;;;;5064214;28;20128;-73
2022/01/08 03:04:21;;;;;;;6.27;0.43;;;0.90;86.70;;;;;;5042106;28;20113;-72
2022/01/08 03:06:46;;;;;;;4.20;0.55;;;0.80;86.70;;;;;;5057417;28;20044;-72
2022/01/08 03:09:12;;;;;;;5.63;0.40;;;0.70;86.80;;;;;;5078294;28;20036;-72
2022/01/08 03:11:38;;;;;;;6.43;1.40;;;0.60;86.80;;;;;;5046816;28;20032;-72
2022/01/08 03:14:05;;;;;;;5.72;0.50;;;0.60;86.80;;;;;;5064486;28;20513;-72
2022/01/08 03:16:31;;;;;;;4.78;0.40;;;0.50;86.80;;;;;;5047432;28;20385;-72
2022/01/08 03:18:57;;;;;;;5.03;0.50;;;0.50;86.80;;;;;;5055889;28;20055;-72
2022/01/08 03:21:22;;;;;;;2.77;0.40;;;0.40;86.80;;;;;;5050132;28;20045;-72
2022/01/08 03:24:00;;;;;;;5.07;0.77;;;0.40;86.80;;;;;;5045074;28;20028;-72
2022/01/08 03:26:28;;;;;;;3.90;0.57;;;0.30;86.70;;;;;;5073671;28;20051;-73
2022/01/08 03:28:54;;;;;;;5.03;0.45;;;0.30;86.80;;;;;;5054671;28;20040;-73
2022/01/08 03:31:21;;;;;;;6.43;0.50;;;0.40;86.80;;;;;;5065193;28;20044;-73
2022/01/08 03:33:48;;;;;;;6.45;0.73;;;0.40;86.90;;;;;;5044580;28;20037;-72
2022/01/08 03:36:14;;;;;;;5.82;0.68;;;0.60;86.90;;;;;;5032563;28;20032;-72
2022/01/08 03:38:40;;;;;;;4.38;0.60;;;0.70;86.70;;;;;;5036344;28;20036;-72
2022/01/08 03:41:06;;;;;;;8.27;0.70;;;0.80;86.60;;;;;;5038937;28;20451;-73
2022/01/08 03:43:32;;;;;;;6.23;0.57;;;0.80;86.70;;;;;;5061297;28;20062;-73
2022/01/08 03:46:00;;;;;;;8.10;0.80;;;0.90;86.50;;;;;;5065570;28;20504;-73
2022/01/08 03:48:44;;;;;;;7.95;0.85;;;0.90;86.50;;;;;;5033572;28;20032;-73
2022/01/08 03:51:11;;;;;;;2.30;0.50;;;1.00;86.50;;;;;;5057044;28;20040;-73
2022/01/08 03:53:37;;;;;;;2.58;0.70;;;1.00;86.50;;;;;;5043572;28;20032;-73
2022/01/08 03:56:02;;;;;;;5.87;0.67;;;1.10;86.30;;;;;;5028418;28;20051;-72
2022/01/08 03:58:28;;;;;;;6.27;0.63;;;1.20;86.20;;;;;;5019931;28;20041;-72
2022/01/08 04:00:54;;;;;;;6.93;0.60;;;1.20;86.20;;;;;;5046559;28;20043;-73
2022/01/08 04:03:20;;;;;;;6.77;0.50;;;1.20;86.10;;;;;;5040871;28;20628;-72
2022/01/08 04:05:50;;;;;;;5.30;0.75;;;1.30;86.00;;;;;;5066270;28;20043;-73
2022/01/08 04:08:17;;;;;;;5.88;0.60;;;1.30;86.20;;;;;;5070450;28;20032;-73
2022/01/08 04:10:43;;;;;;;3.30;0.73;;;1.30;86.40;;;;;;5069255;28;20048;-73
2022/01/08 04:13:11;;;;;;;4.97;0.50;;;1.30;86.30;;;;;;5052912;28;20064;-73
2022/01/08 04:15:40;;;;;;;5.50;0.57;;;1.30;86.40;;;;;;5038814;28;20743;-73
2022/01/08 04:18:07;;;;;;;5.90;0.75;;;1.30;86.40;;;;;;5035511;28;20099;-73
2022/01/08 04:20:48;;;;;;;7.25;0.57;;;1.30;86.40;;;;;;5043062;28;20388;-73
2022/01/08 04:23:17;;;;;;;8.27;0.80;;;1.30;86.50;;;;;;5073427;28;20405;-73
2022/01/08 04:25:42;;;;;;;4.90;0.85;;;1.20;86.50;;;;;;5031440;28;20044;-73
2022/01/08 04:28:08;;;;;;;4.13;0.60;;;1.10;86.50;;;;;;5032683;28;20040;-73
2022/01/08 04:30:34;;;;;;;4.67;0.50;;;1.00;86.60;;;;;;5066194;28;20531;-73
2022/01/08 04:32:59;;;;;;;1.77;0.40;;;0.90;86.70;;;;;;5053745;28;20044;-72
2022/01/08 04:35:25;;;;;;;3.80;0.50;;;0.80;86.80;;;;;;5031761;28;20488;-72
2022/01/08 04:37:51;;;;;;;3.07;0.50;;;0.70;86.70;;;;;;5058440;28;20395;-73
2022/01/08 04:40:16;;;;;;;7.73;1.03;;;0.60;86.80;;;;;;5058718;28;20123;-73
2022/01/08 04:42:42;;;;;;;6.10;0.60;;;0.60;86.90;;;;;;5067660;28;20075;-72
2022/01/08 04:45:08;;;;;;;4.77;0.50;;;0.50;86.90;;;;;;5051171;28;20045;-72
2022/01/08 04:47:34;;;;;;;3.88;0.55;;;0.50;87.00;;;;;;5050757;28;20037;-72
2022/01/08 04:49:59;;;;;;;3.00;0.70;;;0.50;87.00;;;;;;5040959;28;20078;-72
2022/01/08 04:52:26;;;;;;;5.03;1.00;;;0.40;87.00;;;;;;5042687;28;20040;-72
2022/01/08 04:54:51;;;;;;;6.28;0.98;;;0.30;87.10;;;;;;5022484;28;20074;-72
2022/01/08 04:57:17;;;;;;;6.47;1.37;;;0.30;87.10;;;;;;5039506;28;20041;-72
2022/01/08 04:59:43;;;;;;;8.23;1.60;;;0.30;87.20;;;;;;5057438;28;20070;-73
2022/01/08 05:02:08;;;;;;;6.10;1.47;;;0.20;87.10;;;;;;5035057;28;20039;-73
2022/01/08 05:04:34;;;;;;;6.23;1.73;;;0.20;87.10;;;;;;5036872;28;20032;-72
2022/01/08 05:07:00;;;;;;;7.80;1.60;;;0.20;87.20;;;;;;5039038;28;20039;-73
2022/01/08 05:09:25;;;;;;;7.27;1.90;;;0.20;87.20;;;;;;5006802;28;20120;-73
2022/01/08 05:11:51;;;;;;;9.27;2.10;;;0.20;87.30;;;;;;5041097;28;20079;-73
2022/01/08 05:14:17;;;;;;;5.97;1.87;;;0.20;87.40;;;;;;5034476;28;20036;-73
2022/01/08 05:16:44;;;;;;;8.57;2.17;;;0.10;87.40;;;;;;5034936;28;20566;-73
2022/01/08 05:19:10;;;;;;;9.85;2.17;;;0.10;87.40;;;;;;5062167;28;20040;-73
2022/01/08 05:21:38;;;;;;;6.73;2.20;;;0.10;87.40;;;;;;5036268;28;20063;-72
2022/01/08 05:24:04;;;;;;;13.88;2.10;;;0.10;87.40;;;;;;5060430;28;20040;-73
2022/01/08 05:26:30;;;;;;;9.27;2.28;;;0.00;87.30;;;;;;5052307;28;20048;-73
2022/01/08 05:28:56;;;;;;;10.57;2.40;;;0.00;87.30;;;;;;5029646;28;20040;-73
2022/01/08 05:31:23;;;;;;;7.27;2.27;;;-0.10;87.40;;;;;;5043595;28;20291;-73
2022/01/08 05:33:51;;;;;;;8.43;1.95;;;-0.10;87.50;;;;;;5033809;28;20517;-73
2022/01/08 05:36:16;;;;;;;7.25;1.85;;;-0.10;87.30;;;;;;5043365;28;20087;-73
2022/01/08 05:38:42;;;;;;;8.30;1.70;;;-0.20;87.30;;;;;;5053323;28;20489;-73
2022/01/08 05:41:09;;;;;;;7.07;1.80;;;-0.30;87.40;;;;;;5056649;28;20169;-74
2022/01/08 05:43:35;;;;;;;10.00;1.63;;;-0.30;87.50;;;;;;5051576;28;20135;-73
2022/01/08 05:46:01;;;;;;;10.23;1.63;;;-0.30;87.50;;;;;;5049895;28;20155;-73
2022/01/08 05:48:27;;;;;;;12.77;1.70;;;-0.40;87.40;;;;;;5033884;28;20070;-73
2022/01/08 05:50:52;;;;;;;12.00;1.70;;;-0.40;87.40;;;;;;5038702;28;20036;-73
2022/01/08 05:53:19;;;;;;;8.47;1.20;;;-0.50;87.30;;;;;;5037915;28;20039;-73
2022/01/08 05:55:45;;;;;;;10.80;1.77;;;-0.50;87.20;;;;;;5030745;28;20072;-73
2022/01/08 05:58:11;;;;;;;8.65;1.50;;;-0.60;87.20;;;;;;5062399;28;20393;-73
2022/01/08 06:00:37;;;;;;;9.70;1.90;;;-0.60;87.20;;;;;;5056449;28;20048;-73
2022/01/08 06:03:02;;;;;;;5.67;1.10;;;-0.60;87.20;;;;;;5037088;28;20040;-73
2022/01/08 06:05:28;;;;;;;11.27;1.30;;;-0.60;87.10;;;;;;5050649;28;20044;-73
2022/01/08 06:07:54;;;;;;;9.50;1.67;;;-0.70;87.30;;;;;;5035985;28;20697;-73
2022/01/08 06:10:20;;;;;;;6.60;1.27;;;-0.70;87.30;;;;;;5038401;28;20075;-73
2022/01/08 06:12:46;;;;;;;8.63;1.07;;;-0.70;87.30;;;;;;5058801;28;20058;-73
2022/01/08 06:15:12;;;;;;;5.85;1.20;;;-0.60;87.40;;;;;;5062035;28;20135;-73
2022/01/08 06:17:38;;;;;;;14.13;1.40;;;-0.60;87.40;;;;;;5049596;28;20136;-73
2022/01/08 06:20:04;;;;;;;5.70;1.00;;;-0.60;87.50;;;;;;5034177;28;20036;-73
2022/01/08 06:22:30;;;;;;;10.80;1.33;;;-0.50;87.40;;;;;;5044164;28;20040;-73
2022/01/08 06:24:56;;;;;;;7.17;1.70;;;-0.50;87.60;;;;;;5054917;28;20303;-74
2022/01/08 06:27:22;;;;;;;7.87;1.20;;;-0.40;87.60;;;;;;5036090;28;20550;-74
2022/01/08 06:29:48;;;;;;;8.75;1.55;;;-0.30;87.70;;;;;;5035916;28;20269;-73
2022/01/08 06:32:14;;;;;;;7.73;1.63;;;-0.20;87.70;;;;;;5051661;28;20037;-73
2022/01/08 06:34:43;;;;;;;12.77;1.92;;;-0.20;87.70;;;;;;5024448;28;20404;-73
2022/01/08 06:37:10;;;;;;;7.05;1.42;;;-0.20;87.70;;;;;;5051170;28;20052;-73
2022/01/08 06:39:36;;;;;;;11.00;1.80;;;-0.20;87.70;;;;;;5056140;28;20186;-73
2022/01/08 06:42:02;;;;;;;10.60;2.07;;;-0.20;87.80;;;;;;5041565;28;20119;-73
2022/01/08 06:44:28;;;;;;;12.32;2.35;;;-0.20;87.70;;;;;;5038776;28;20052;-74
2022/01/08 06:46:54;;;;;;;8.80;1.87;;;-0.20;87.60;;;;;;5049746;28;20078;-73
2022/01/08 06:49:19;;;;;;;10.63;2.40;;;-0.20;87.60;;;;;;5063205;28;20036;-73
2022/01/08 06:51:45;;;;;;;8.93;2.67;;;-0.20;87.70;;;;;;5056422;28;20290;-73
2022/01/08 06:54:11;;;;;;;12.65;2.45;;;-0.20;87.70;;;;;;5067234;28;20301;-73
2022/01/08 06:56:37;;;;;;;10.03;3.00;;;-0.20;87.70;;;;;;5037379;28;20044;-73
2022/01/08 06:59:03;;;;;;;8.77;3.10;;;-0.20;87.70;;;;;;5032166;28;20044;-73
2022/01/08 07:01:29;;;;;;;13.38;2.80;;;-0.10;87.60;;;;;;5031374;28;20047;-73
2022/01/08 07:03:55;;;;;;;12.35;2.92;;;-0.10;87.60;;;;;;5062357;28;20040;-74
2022/01/08 07:06:22;;;;;;;12.35;2.55;;;-0.10;87.60;;;;;;5058048;28;20420;-74
2022/01/08 07:08:48;;;;;;;7.93;2.65;;;-0.10;87.60;;;;;;5040280;28;20044;-73
2022/01/08 07:11:14;;;;;;;8.07;2.70;;;-0.10;87.60;;;;;;5026508;28;20047;-73
2022/01/08 07:13:40;;;;;;;14.13;3.20;;;-0.10;87.60;;;;;;5045243;28;20036;-73
2022/01/08 07:16:06;;;;;;;9.63;2.40;;;0.00;87.70;;;;;;5037418;28;21292;-74
2022/01/08 07:18:32;;;;;;;5.57;2.00;;;0.00;87.60;;;;;;5055066;28;20051;-74
2022/01/08 07:20:57;;;;;;;10.63;2.30;;;0.00;87.60;;;;;;5050334;28;20051;-74
2022/01/08 07:23:23;;;;;;;11.43;2.40;;;0.10;87.50;;;;;;5067574;28;20051;-74
2022/01/08 07:25:49;;;;;;;9.87;2.80;;;0.10;87.50;;;;;;5053012;28;20382;-73
2022/01/08 07:28:14;;;;;;;9.43;2.40;;;0.10;87.50;;;;;;5071662;28;20044;-74
2022/01/08 07:30:40;;;;;;;9.07;2.30;;;0.10;87.60;;;;;;5064577;28;20043;-73
2022/01/08 07:33:06;;;;;;;10.10;2.30;;;0.20;87.50;;;;;;5072548;28;20075;-74
2022/01/08 07:35:32;;;;;;;15.07;2.40;;;0.20;87.50;;;;;;5042056;28;20364;-73
2022/01/08 07:37:57;;;;;;;14.10;3.27;;;0.20;87.50;;;;;;5040924;28;20037;-73
2022/01/08 07:40:23;;;;;;;10.87;2.60;;;0.20;87.40;;;;;;5030920;28;20464;-74
2022/01/08 07:42:49;;;;;;;12.37;2.73;;;0.20;87.50;;;;;;5055472;28;20044;-74
2022/01/08 07:45:16;;;;;;;8.27;2.20;;;0.20;87.30;;;;;;5066871;28;20044;-74
2022/01/08 07:47:42;;;;;;;9.80;2.50;;;0.20;87.50;;;;;;5064413;28;20043;-74
2022/01/08 07:50:08;;;;;;;11.80;2.53;;;0.20;87.50;;;;;;5044627;28;20413;-74
2022/01/08 07:52:34;;;;;;;9.45;2.30;;;0.20;87.40;;;;;;5057742;28;20068;-74
2022/01/08 07:55:00;;;;;;;10.25;2.80;;;0.20;87.40;;;;;;5054648;28;20086;-74
2022/01/08 07:57:26;;;;;;;9.47;2.43;;;0.20;87.50;;;;;;5045301;28;20082;-73
2022/01/08 07:59:51;;;;;;;11.87;2.60;;;0.20;87.50;;;;;;5048353;28;20507;-74
2022/01/08 08:02:18;;;;;;;8.63;2.57;;;0.20;87.50;;;;;;5057535;28;20504;-74
2022/01/08 08:04:43;;;;;;;15.55;3.28;;;0.20;87.50;;;;;;5045297;28;20063;-74
2022/01/08 08:07:09;;;;;;;6.47;2.57;;;0.30;87.50;;;;;;5066208;28;20036;-73
2022/01/08 08:09:35;;;;;;;12.87;3.10;;;0.30;87.60;;;;;;5047624;28;20037;-74
2022/01/08 08:12:01;;;;;;;6.80;2.60;;;0.30;87.60;;;;;;5051872;28;20048;-74
2022/01/08 08:14:26;;;;;;;12.17;2.90;;;0.40;87.50;;;;;;5052481;28;20044;-74
2022/01/08 08:16:52;;;;;;;11.33;3.20;;;0.40;87.60;;;;;;5063156;28;20043;-74
2022/01/08 08:19:18;;;;;;;6.57;3.03;;;0.40;87.50;;;;;;5054512;28;20044;-74
2022/01/08 08:21:44;;;;;;;10.07;3.47;;;0.50;87.50;;;;;;5044457;28;20124;-73
2022/01/08 08:24:09;;;;;;;9.43;3.10;;;0.50;87.40;;;;;;5063426;28;20065;-73
2022/01/08 08:26:36;;;;;;;11.23;2.77;;;0.60;87.40;;;;;;5071351;28;20044;-74
2022/01/08 08:29:03;;;;;;;7.72;2.97;;;0.60;87.30;;;;;;5059258;28;20037;-74
2022/01/08 08:31:29;;;;;;;11.55;3.33;;;0.60;87.30;;;;;;5064628;28;20032;-74
2022/01/08 08:33:54;;;;;;;8.10;3.10;;;0.70;87.40;;;;;;5043444;28;20047;-74
2022/01/08 08:36:20;;;;;;;12.00;3.37;;;0.80;87.30;;;;;;5035970;28;20496;-74
2022/01/08 08:38:46;;;;;;;7.03;2.73;;;0.80;87.30;;;;;;5028823;28;20051;-74
2022/01/08 08:41:11;;;;;;;8.47;3.00;;;0.90;87.30;;;;;;5040716;28;20055;-74
2022/01/08 08:43:38;;;;;;;12.43;3.17;;;0.90;87.40;;;;;;5052206;28;20056;-74
2022/01/08 08:46:04;;;;;;;10.38;2.97;;;1.00;87.40;;;;;;5053910;28;20134;-74
2022/01/08 08:48:29;;;;;;;14.98;3.45;;;1.00;87.40;;;;;;5066032;28;21274;-74
2022/01/08 08:50:55;;;;;;;8.57;2.40;;;1.10;87.30;;;;;;5064093;28;20071;-74
2022/01/08 08:53:21;;;;;;;9.80;2.53;;;1.10;87.30;;;;;;5060038;28;20044;-74
2022/01/08 08:55:48;;;;;;;14.17;3.70;;;1.10;87.30;;;;;;5070591;28;20046;-75
2022/01/08 08:58:14;;;;;;;10.55;2.88;;;1.20;87.10;;;;;;5036391;28;20052;-75
2022/01/08 09:00:40;;;;;;;9.00;2.33;;;1.20;87.10;;;;;;5027596;28;20028;-75
2022/01/08 09:03:06;;;;;;;9.43;3.13;;;1.20;87.20;;;;;;5047993;28;20105;-74
2022/01/08 09:05:31;;;;;;;10.50;2.80;;;1.30;87.10;;;;;;5063554;28;20049;-74
2022/01/08 09:07:57;;;;;;;7.43;2.40;;;1.30;87.20;;;;;;5020405;28;20548;-74
2022/01/08 09:10:25;;;;;;;8.50;2.83;;;1.30;87.30;;;;;;5036347;28;20032;-74
2022/01/08 09:12:52;;;;;;;9.40;2.30;;;1.40;87.30;;;;;;5039810;28;20036;-74
2022/01/08 09:15:22;;;;;;;7.13;2.00;;;1.40;87.10;;;;;;5043465;28;20039;-74
2022/01/08 09:17:49;;;;;;;7.00;2.33;;;1.50;87.10;;;;;;5041471;28;20048;-74
2022/01/08 09:20:15;;;;;;;12.57;2.60;;;1.50;87.10;;;;;;5038839;28;20048;-74
2022/01/08 09:22:41;;;;;;;15.25;3.58;;;1.50;87.10;;;;;;5057924;28;20564;-74
2022/01/08 09:25:08;;;;;;;10.35;2.80;;;1.60;87.20;;;;;;5044564;28;20052;-75
2022/01/08 09:27:34;;;;;;;12.48;3.38;;;1.60;87.10;;;;;;5052918;28;20089;-74
2022/01/08 09:30:00;;;;;;;11.63;2.93;;;1.70;87.20;;;;;;5049253;28;20504;-74
2022/01/08 09:32:26;;;;;;;11.03;2.77;;;1.70;87.20;;;;;;5019006;28;20086;-74
2022/01/08 09:34:52;;;;;;;14.15;3.10;;;1.80;87.20;;;;;;4991370;28;20063;-74
2022/01/08 09:37:18;;;;;;;9.55;2.78;;;1.90;87.10;;;;;;5056124;28;20551;-75
2022/01/08 09:39:44;;;;;;;13.90;3.25;;;1.90;87.00;;;;;;5034898;28;20152;-74
2022/01/08 09:42:10;;;;;;;12.87;3.50;;;2.00;87.10;;;;;;5055746;28;20032;-73
2022/01/08 09:44:43;;;;;;;12.43;3.07;;;2.10;87.20;;;;;;5044422;28;20442;-74
2022/01/08 09:47:09;;;;;;;14.88;3.78;;;2.20;87.20;;;;;;5077036;28;20287;-73
2022/01/08 09:49:35;;;;;;;13.07;3.70;;;2.20;87.10;;;;;;5055018;28;20477;-73
2022/01/08 09:52:03;;;;;;;10.07;3.80;;;2.30;87.00;;;;;;5059899;28;20286;-73
2022/01/08 09:54:32;;;;;;;14.48;3.55;;;2.30;86.90;;;;;;5039389;28;20286;-74
2022/01/08 09:56:58;;;;;;;10.85;4.20;;;2.30;86.50;;;;;;5035399;28;20043;-74
2022/01/08 09:59:25;;;;;;;13.10;3.35;;;2.30;86.60;;;;;;5052832;28;20408;-73
2022/01/08 10:01:59;;;;;;;9.00;2.97;;;2.30;86.20;;;;;;5045449;28;20059;-73
2022/01/08 10:04:30;;;;;;;16.80;3.97;;;2.30;86.10;;;;;;5057938;28;20388;-73
2022/01/08 10:07:26;;;;;;;12.93;2.95;;;2.30;86.00;;;;;;5064730;28;20456;-73
2022/01/08 10:10:17;;;;;;;8.77;3.30;;;2.30;85.40;;;;;;5049076;28;20051;-73
2022/01/08 10:12:58;;;;;;;16.48;4.22;;;2.30;85.70;;;;;;5046306;28;20118;-73
2022/01/08 10:18:32;;;;;;;19.88;3.78;;;2.30;85.50;;;;;;5049520;28;20051;-72
2022/01/08 10:20:58;;;;;;;8.80;3.20;;;2.40;85.70;;;;;;5053401;28;20047;-73
2022/01/08 10:23:27;;;;;;;15.82;3.47;;;2.40;85.40;;;;;;5054571;28;20101;-73
2022/01/08 10:25:57;;;;;;;8.18;3.20;;;2.40;85.70;;;;;;5058291;28;20106;-72
2022/01/08 10:28:38;;;;;;;11.38;3.40;;;2.50;85.80;;;;;;5066017;28;20079;-73
2022/01/08 10:31:22;;;;;;;14.90;3.88;;;2.50;85.10;;;;;;5055161;28;20492;-72
2022/01/08 10:34:00;;;;;;;12.48;3.47;;;2.60;85.20;;;;;;5056261;28;20318;-72
2022/01/08 10:36:30;;;;;;;14.05;4.05;;;2.60;84.80;;;;;;5056642;28;20036;-72
2022/01/08 10:38:58;;;;;;;9.07;3.85;;;2.60;85.10;;;;;;5043406;28;20257;-72
2022/01/08 10:41:25;;;;;;;11.40;3.92;;;2.60;85.00;;;;;;5041154;28;20041;-72
2022/01/08 10:44:06;;;;;;;14.85;4.22;;;2.60;84.80;;;;;;5073185;28;20081;-72
2022/01/08 10:46:33;;;;;;;10.60;4.43;;;2.60;85.00;;;;;;5053452;28;20048;-72
2022/01/08 10:48:59;;;;;;;16.85;5.57;;;2.60;85.20;;;;;;5071897;28;20071;-72
2022/01/08 10:51:26;;;;;;;13.37;5.10;;;2.60;84.90;;;;;;5056227;28;20158;-73
2022/01/08 10:53:52;;;;;;;15.85;5.22;;;2.50;84.40;;;;;;5055169;28;20664;-72
2022/01/08 10:56:26;;;;;;;11.33;4.87;;;2.50;84.70;;;;;;5040995;28;20044;-72
2022/01/08 10:58:56;;;;;;;20.73;6.03;;;2.50;85.00;;;;;;5054780;28;20040;-73
2022/01/08 11:01:39;;;;;;;16.90;6.53;;;2.50;85.00;;;;;;5039491;28;20493;-72
2022/01/08 11:04:07;;;;;;;16.83;6.57;;;2.50;84.70;;;;;;5051368;28;20165;-73
2022/01/08 11:06:35;;;;;;;16.98;6.75;;;2.60;84.80;;;;;;5043176;28;20094;-73
2022/01/08 11:09:02;;;;;;;19.15;6.88;;;2.60;84.90;;;;;;5046213;28;20043;-73
2022/01/08 11:11:30;;;;;;;16.67;6.50;;;2.60;85.00;;;;;;5071232;28;20068;-73
2022/01/08 11:14:07;;;;;;;11.68;6.03;;;2.70;85.10;;;;;;5032797;28;20036;-73
2022/01/08 11:16:37;;;;;;;12.77;6.40;;;2.70;84.70;;;;;;5055000;28;20037;-73
2022/01/08 11:19:03;;;;;;;17.00;6.03;;;2.70;84.10;;;;;;5064345;28;20400;-73
2022/01/08 11:21:32;;;;;;;13.10;6.22;;;2.80;84.60;;;;;;5032758;28;20035;-73
2022/01/08 11:23:59;;;;;;;13.30;6.03;;;2.90;84.70;;;;;;5056528;28;20085;-73
2022/01/08 11:26:27;;;;;;;12.82;6.13;;;2.90;84.70;;;;;;5040008;28;20561;-73
2022/01/08 11:28:58;;;;;;;15.80;6.18;;;3.00;84.70;;;;;;5047678;28;20097;-72
2022/01/08 11:31:28;;;;;;;11.70;5.35;;;3.00;84.50;;;;;;5081225;28;20036;-73
2022/01/08 11:33:57;;;;;;;14.02;4.88;;;3.10;84.30;;;;;;5059121;28;20509;-73
2022/01/08 11:36:24;;;;;;;12.25;5.53;;;3.10;84.10;;;;;;5039801;28;20074;-72
2022/01/08 11:38:54;;;;;;;13.77;5.38;;;3.20;84.20;;;;;;5082411;28;20093;-73
2022/01/08 11:41:20;;;;;;;13.63;5.80;;;3.20;83.80;;;;;;5049793;28;20083;-73
2022/01/08 11:43:49;;;;;;;11.30;5.75;;;3.20;83.70;;;;;;5044644;28;20083;-73
2022/01/08 11:46:15;;;;;;;13.50;5.72;;;3.10;83.70;;;;;;5063340;28;20369;-72
2022/01/08 11:48:45;;;;;;;10.75;4.93;;;3.10;83.20;;;;;;5038108;28;20037;-73
2022/01/08 11:51:19;;;;;;;13.90;6.03;;;3.10;84.00;;;;;;5067583;28;20044;-72
2022/01/08 11:53:48;;;;;;;14.23;5.70;;;3.10;83.50;;;;;;5066774;28;20047;-73
2022/01/08 11:56:30;;;;;;;12.60;5.90;;;3.10;83.20;;;;;;5049326;28;20045;-73
2022/01/08 11:59:29;;;;;;;14.60;6.53;;;3.10;83.50;;;;;;5066203;28;20051;-73
2022/01/08 12:02:07;;;;;;;17.08;6.70;;;3.20;83.50;;;;;;5055671;28;20040;-72
2022/01/08 12:04:33;;;;;;;12.98;7.00;;;3.10;83.10;;;;;;5036867;28;20083;-73
2022/01/08 12:07:26;;;;;;;15.77;7.03;;;3.10;83.40;;;;;;5053270;28;20044;-73
2022/01/08 12:10:30;;;;;;;13.73;7.38;;;3.20;84.10;;;;;;5060412;28;20065;-73
2022/01/08 12:13:00;;;;;;;12.25;7.10;;;3.10;83.80;;;;;;5071332;28;20028;-73
2022/01/08 12:15:40;;;;;;;19.63;7.65;;;3.20;83.80;;;;;;5034560;28;20133;-73
2022/01/08 12:18:15;;;;;;;15.70;7.15;;;3.10;83.80;;;;;;5057091;28;20434;-72
2022/01/08 12:20:47;;;;;;;;;;;3.10;83.30;;;;;;5051207;28;20033;-72
2022/01/08 12:23:34;;;;;;;14.95;7.97;;;3.10;82.80;;;;;;5060882;28;19916;-72
2022/01/08 12:26:16;;;;;;;14.27;7.70;;;3.10;82.80;;;;;;5059236;28;20503;-73
2022/01/08 12:28:58;;;;;;;21.05;8.55;;;3.10;82.70;;;;;;5067776;28;20483;-72
2022/01/08 12:31:52;;;;;;;12.27;7.90;;;3.10;82.40;;;;;;5050045;28;20040;-73
2022/01/08 12:34:23;;;;;;;16.83;8.60;;;3.10;81.80;;;;;;5052989;28;20152;-72
2022/01/08 12:37:03;;;;;;;14.93;8.05;;;3.10;81.20;;;;;;5057013;28;20109;-72
2022/01/08 12:39:54;;;;;;;15.93;8.60;;;3.00;81.10;;;;;;5078017;28;20471;-73
2022/01/08 12:42:19;;;;;;;16.10;8.00;;;3.00;81.60;;;;;;5039184;28;20479;-73
2022/01/08 12:45:36;;;;;;;12.97;8.00;;;3.00;81.20;;;;;;5064378;28;20055;-73
2022/01/08 12:48:08;;;;;;;12.55;6.53;;;3.00;81.80;;;;;;5023238;28;20052;-73
2022/01/08 12:50:52;;;;;;;9.23;5.90;;;3.00;82.10;;;;;;5045094;28;20093;-72
2022/01/08 12:53:22;;;;;;;8.85;4.95;;;3.00;81.90;;;;;;5036143;28;20043;-72
2022/01/08 12:55:54;;;;;;;9.90;4.53;;;3.00;81.80;;;;;;5058501;28;20051;-72
2022/01/08 12:58:25;;;;;;;4.88;3.38;;;3.00;81.20;;;;;;5064637;28;20059;-72
2022/01/08 13:00:56;;;;;;;10.25;4.00;;;3.00;82.00;;;;;;5060469;28;20072;-73
2022/01/08 13:03:24;;;;;;;6.97;3.10;;;3.00;81.90;;;;;;5083466;28;20612;-72
2022/01/08 13:05:50;;;;;;;7.20;2.92;;;3.00;81.50;;;;;;5031575;28;20079;-73
2022/01/08 13:08:27;;;;;;;12.32;4.97;;;3.00;81.80;;;;;;5043535;28;20048;-73
2022/01/08 13:10:57;;;;;;;6.03;2.42;;;3.00;81.10;;;;;;5052411;28;20069;-73
2022/01/08 13:13:24;;;;;;;5.95;2.95;;;3.00;80.40;;;;;;5041924;28;20089;-73
2022/01/08 13:15:51;;;;;;;8.27;2.72;;;3.00;81.00;;;;;;5054437;28;20040;-73
2022/01/08 13:18:18;;;;;;;8.80;2.97;;;3.00;80.10;;;;;;4985734;28;20107;-73
2022/01/08 13:20:44;;;;;;;5.88;3.00;;;2.90;80.10;;;;;;5082084;28;20044;-73
2022/01/08 13:23:12;;;;;;;5.00;3.00;;;2.90;79.70;;;;;;5041779;28;20097;-72